地図

経路データ

SID SEASON NUMBER BASIN SUBBASIN NAME ISO_TIME NATURE LAT LON WMO_WIND WMO_PRES WMO_AGENCY TRACK_TYPE DIST2LAND LANDFALL IFLAG USA_AGENCY USA_ATCF_ID USA_LAT USA_LON USA_RECORD USA_STATUS USA_WIND USA_PRES USA_SSHS USA_R34_NE USA_R34_SE USA_R34_SW USA_R34_NW USA_R50_NE USA_R50_SE USA_R50_SW USA_R50_NW USA_R64_NE USA_R64_SE USA_R64_SW USA_R64_NW USA_POCI USA_ROCI USA_RMW USA_EYE TOKYO_LAT TOKYO_LON TOKYO_GRADE TOKYO_WIND TOKYO_PRES TOKYO_R50_DIR TOKYO_R50_LONG TOKYO_R50_SHORT TOKYO_R30_DIR TOKYO_R30_LONG TOKYO_R30_SHORT TOKYO_LAND CMA_LAT CMA_LON CMA_CAT CMA_WIND CMA_PRES HKO_LAT HKO_LON HKO_CAT HKO_WIND HKO_PRES NEWDELHI_LAT NEWDELHI_LON NEWDELHI_GRADE NEWDELHI_WIND NEWDELHI_PRES NEWDELHI_CI NEWDELHI_DP NEWDELHI_POCI REUNION_LAT REUNION_LON REUNION_TYPE REUNION_WIND REUNION_PRES REUNION_TNUM REUNION_CI REUNION_RMW REUNION_R34_NE REUNION_R34_SE REUNION_R34_SW REUNION_R34_NW REUNION_R50_NE REUNION_R50_SE REUNION_R50_SW REUNION_R50_NW REUNION_R64_NE REUNION_R64_SE REUNION_R64_SW REUNION_R64_NW BOM_LAT BOM_LON BOM_TYPE BOM_WIND BOM_PRES BOM_TNUM BOM_CI BOM_RMW BOM_R34_NE BOM_R34_SE BOM_R34_SW BOM_R34_NW BOM_R50_NE BOM_R50_SE BOM_R50_SW BOM_R50_NW BOM_R64_NE BOM_R64_SE BOM_R64_SW BOM_R64_NW BOM_ROCI BOM_POCI BOM_EYE BOM_POS_METHOD BOM_PRES_METHOD NADI_LAT NADI_LON NADI_CAT NADI_WIND NADI_PRES WELLINGTON_LAT WELLINGTON_LON WELLINGTON_WIND WELLINGTON_PRES DS824_LAT DS824_LON DS824_STAGE DS824_WIND DS824_PRES TD9636_LAT TD9636_LON TD9636_STAGE TD9636_WIND TD9636_PRES TD9635_LAT TD9635_LON TD9635_WIND TD9635_PRES TD9635_ROCI NEUMANN_LAT NEUMANN_LON NEUMANN_CLASS NEUMANN_WIND NEUMANN_PRES MLC_LAT MLC_LON MLC_CLASS MLC_WIND MLC_PRES USA_GUST BOM_GUST BOM_GUST_PER REUNION_GUST REUNION_GUST_PER USA_SEAHGT USA_SEARAD_NE USA_SEARAD_SE USA_SEARAD_SW USA_SEARAD_NW STORM_SPEED STORM_DIR
2003247N27272 2003 70 NA GM HENRI 2003-09-03 18:00:00 TS 27.4000 -87.7000 25 1013 hurdat_atl main 225 210 O_____________ hurdat_atl AL122003 27.4000 -87.7000 TD 25 1013 -1 1014 150 45 2 323
2003247N27272 2003 70 NA GM HENRI 2003-09-03 21:00:00 TS 27.4950 -87.7749 main 210 201 P_____________ AL122003 27.4950 -87.7749 TD 25 1012 -1 1013 137 45 2 335
2003247N27272 2003 70 NA GM HENRI 2003-09-04 00:00:00 TS 27.6000 -87.8000 25 1011 hurdat_atl main 201 192 O_____________ hurdat_atl AL122003 27.6000 -87.8000 TD 25 1011 -1 1013 125 45 2 11
2003247N27272 2003 70 NA GM HENRI 2003-09-04 03:00:00 TS 27.7150 -87.7376 main 199 191 P_____________ AL122003 27.7150 -87.7376 TD 25 1010 -1 1013 125 47 3 42
2003247N27272 2003 70 NA GM HENRI 2003-09-04 06:00:00 TS 27.8000 -87.6000 25 1009 hurdat_atl main 198 198 O_____________ hurdat_atl AL122003 27.8000 -87.6000 TD 25 1009 -1 1014 125 50 3 68
2003247N27272 2003 70 NA GM HENRI 2003-09-04 09:00:00 TS 27.8148 -87.4524 main 205 205 P_____________ AL122003 27.8148 -87.4524 TD 27 1009 -1 1013 125 50 4 90
2003247N27272 2003 70 NA GM HENRI 2003-09-04 12:00:00 TS 27.8000 -87.2000 30 1010 hurdat_atl main 227 227 O_____________ hurdat_atl AL122003 27.8000 -87.2000 TD 30 1010 -1 1013 125 50 6 90
2003247N27272 2003 70 NA GM HENRI 2003-09-04 15:00:00 TS 27.8154 -86.7576 main 252 229 P_____________ AL122003 27.8154 -86.7576 TD 30 1006 -1 1013 125 37 8 90
2003247N27272 2003 70 NA GM HENRI 2003-09-04 18:00:00 TS 27.8000 -86.3000 30 1002 hurdat_atl main 229 225 O_____________ hurdat_atl AL122003 27.8000 -86.3000 TD 30 1002 -1 1013 125 25 7 101
2003247N27272 2003 70 NA GM HENRI 2003-09-04 21:00:00 TS 27.6922 -86.0348 main 230 230 P_____________ AL122003 27.6922 -86.0348 TD 30 1003 -1 1013 125 25 5 114
2003247N27272 2003 70 NA GM HENRI 2003-09-05 00:00:00 TS 27.6000 -85.8000 30 1004 hurdat_atl main 237 234 O_____________ hurdat_atl AL122003 27.6000 -85.8000 TD 30 1004 -1 1013 125 25 5 100
2003247N27272 2003 70 NA GM HENRI 2003-09-05 03:00:00 TS 27.6050 -85.4649 main 234 217 P_____________ AL122003 27.6050 -85.4649 TD 32 1002 -1 1012 137 30 6 81
2003247N27272 2003 70 NA GM HENRI 2003-09-05 06:00:00 TS 27.7000 -85.1000 35 1000 hurdat_atl main 217 176 O_____________ hurdat_atl AL122003 27.7000 -85.1000 TS 35 1000 0 1012 150 35 7 67
2003247N27272 2003 70 NA GM HENRI 2003-09-05 09:00:00 TS 27.8926 -84.7129 main 176 148 P_____________ AL122003 27.8926 -84.7129 TS 37 998 0 1011 137 25 7 57
2003247N27272 2003 70 NA GM HENRI 2003-09-05 12:00:00 TS 28.1000 -84.4000 40 997 hurdat_atl main 148 141 O_____________ hurdat_atl AL122003 28.1000 -84.4000 TS 40 997 0 25 40 25 1010 125 15 5 47
2003247N27272 2003 70 NA GM HENRI 2003-09-05 15:00:00 TS 28.2598 -84.2699 main 144 134 P_____________ AL122003 28.2598 -84.2699 TS 45 997 0 25 40 25 1010 125 12 3 42
2003247N27272 2003 70 NA GM HENRI 2003-09-05 18:00:00 TS 28.3000 -84.2000 50 997 hurdat_atl main 134 119 O_____________ hurdat_atl AL122003 28.3000 -84.2000 TS 50 997 0 25 40 25 25 1010 125 10 2 125
2003247N27272 2003 70 NA GM HENRI 2003-09-05 21:00:00 TS 28.1300 -84.0648 main 119 98 P_____________ AL122003 28.1300 -84.0648 TS 40 999 0 25 40 25 25 1010 125 12 5 146
2003247N27272 2003 70 NA GM HENRI 2003-09-06 00:00:00 TS 27.9000 -83.9000 30 1002 hurdat_atl main 98 89 O_____________ hurdat_atl AL122003 27.9000 -83.9000 TD 30 1002 -1 1010 125 15 5 151
2003247N27272 2003 70 NA GM HENRI 2003-09-06 03:00:00 TS 27.7245 -83.8088 main 91 63 P_____________ AL122003 27.7245 -83.8088 TD 30 1003 -1 1010 125 20 4 119
2003247N27272 2003 70 NA GM HENRI 2003-09-06 06:00:00 TS 27.7000 -83.5000 30 1005 hurdat_atl main 63 0 O_____________ hurdat_atl AL122003 27.7000 -83.5000 TD 30 1005 -1 1010 125 25 9 79
2003247N27272 2003 70 NA NA HENRI 2003-09-06 09:00:00 TS 27.9000 -82.8000 30 1006 hurdat_atl main 0 0 V_____________ hurdat_atl AL122003 27.9000 -82.8000 L TD 30 1006 -1 1010 125 22 17 65
2003247N27272 2003 70 NA NA HENRI 2003-09-06 12:00:00 TS 28.4000 -81.8000 25 1007 hurdat_atl main 0 0 O_____________ hurdat_atl AL122003 28.4000 -81.8000 TD 25 1007 -1 1010 125 20 18 60
2003247N27272 2003 70 NA NA HENRI 2003-09-06 15:00:00 TS 28.8199 -81.0037 main 0 0 P_____________ AL122003 28.8199 -81.0037 TD 25 1006 -1 1011 125 20 15 57
2003247N27272 2003 70 NA NA HENRI 2003-09-06 18:00:00 TS 29.2000 -80.4000 25 1006 hurdat_atl main 49 49 O_____________ hurdat_atl AL122003 29.2000 -80.4000 TD 25 1006 -1 1012 125 20 13 51
2003247N27272 2003 70 NA NA HENRI 2003-09-06 21:00:00 TS 29.6222 -79.8674 main 111 111 P_____________ AL122003 29.6222 -79.8674 TD 27 1006 -1 1012 125 20 11 44
2003247N27272 2003 70 NA NA HENRI 2003-09-07 00:00:00 TS 30.0000 -79.5000 30 1006 hurdat_atl main 168 168 O_____________ hurdat_atl AL122003 30.0000 -79.5000 TD 30 1006 -1 1012 125 20 8 35
2003247N27272 2003 70 NA NA HENRI 2003-09-07 03:00:00 TS 30.2871 -79.3343 main 198 198 P_____________ AL122003 30.2871 -79.3343 TD 30 1007 -1 1012 125 60 6 28
2003247N27272 2003 70 NA NA HENRI 2003-09-07 06:00:00 TS 30.5000 -79.2000 30 1008 hurdat_atl main 211 211 O_____________ hurdat_atl AL122003 30.5000 -79.2000 TD 30 1008 -1 1012 125 100 5 48
2003247N27272 2003 70 NA NA HENRI 2003-09-07 09:00:00 TS 30.6502 -78.8723 main 232 232 P_____________ AL122003 30.6502 -78.8723 TD 30 1007 -1 1011 125 87 7 64
2003247N27272 2003 70 NA NA HENRI 2003-09-07 12:00:00 TS 30.8000 -78.5000 30 1006 hurdat_atl main 245 239 O_____________ hurdat_atl AL122003 30.8000 -78.5000 TD 30 1006 -1 1010 125 75 7 55
2003247N27272 2003 70 NA NA HENRI 2003-09-07 15:00:00 TS 31.0423 -78.2074 main 246 230 P_____________ AL122003 31.0423 -78.2074 TD 30 1006 -1 1010 125 75 7 46
2003247N27272 2003 70 NA NA HENRI 2003-09-07 18:00:00 TS 31.3000 -77.9000 30 1006 hurdat_atl main 236 233 O_____________ hurdat_atl AL122003 31.3000 -77.9000 TD 30 1006 -1 1010 125 75 8 52
2003247N27272 2003 70 NA NA HENRI 2003-09-07 21:00:00 TS 31.5076 -77.4999 main 244 244 P_____________ AL122003 31.5076 -77.4999 TD 30 1006 -1 1010 125 75 8 60
2003247N27272 2003 70 NA NA HENRI 2003-09-08 00:00:00 TS 31.7000 -77.1000 30 1006 hurdat_atl main 258 249 O_____________ hurdat_atl AL122003 31.7000 -77.1000 TD 30 1006 -1 1010 125 75 7 57
2003247N27272 2003 70 NA NA HENRI 2003-09-08 03:00:00 TS 31.8998 -76.7848 main 249 239 P_____________ AL122003 31.8998 -76.7848 TD 30 1006 -1 1010 150 75 6 52
2003247N27272 2003 70 NA NA HENRI 2003-09-08 06:00:00 TS 32.1000 -76.5000 30 1007 hurdat_atl main 244 238 O_____________ hurdat_atl AL122003 32.1000 -76.5000 TD 30 1007 -1 1010 175 75 6 51
2003247N27272 2003 70 NA NA HENRI 2003-09-08 09:00:00 TS 32.2999 -76.1999 main 244 242 P_____________ AL122003 32.2999 -76.1999 TD 30 1006 -1 1010 175 75 6 52
2003247N27272 2003 70 NA NA HENRI 2003-09-08 12:00:00 TS 32.5000 -75.9000 30 1006 hurdat_atl main 249 234 O_____________ hurdat_atl AL122003 32.5000 -75.9000 TD 30 1006 -1 1010 175 75 6 52
2003247N27272 2003 70 NA NA HENRI 2003-09-08 15:00:00 TS 32.7001 -75.6003 main 237 224 P_____________ AL122003 32.7001 -75.6003 TD 27 1006 -1 1010 175 87 6 52
2003247N27272 2003 70 NA NA HENRI 2003-09-08 18:00:00 ET 32.9000 -75.3000 25 1006 hurdat_atl main 229 O_____________ hurdat_atl AL122003 32.9000 -75.3000 EX 25 1006 -4 1011 175 100 6 52

IBTrACS Databaseについて

本データベースは、米国NOAAが公開する1842年以降の世界の熱帯低気圧のベストトラックデータアーカイブInternational Best Track Archive for Climate Stewardship (IBTrACS)を、ウェブで閲覧しやすい形式に変換したものです。

最終更新日:2021-10-19